Accueil
METAR-TAF:

METAR-TAF

Aéroports :

Pangnirtung, Nunavut, Canada

latitude: 66-09N, longitude: 065-43W, altitude: 23 m

Observation

Le bulletin a été fait il y a 2 heures et 18 minutes, à 12:00 UTC
Vent calme
Température 0°C
Humidité 64%
Pression 1019 hPa
Visibilité: 24.1 km
Quelques nuages à une hauteur de 6000 ft
Nuages fragmentés à une hauteur de 14000 ft

METAR: CYXP 011200Z 00000KT 15SM FEW060 BKN140 00/M06 A3008 RMK CU1AC5 CU TR SLP190

Heure: 10:18 (14:18 UTC)

Prévision

Le bulletin a été fait il y a 1 heure et 40 minutes, à 12:38 UTC
Prévision valable du 01 à 13 UTC au 01 à 22 UTC
Vent 10 kt de ouest/sud-ouest
Visibilité: 10 km
Nuages épars à une hauteur de 5000 ft
Temporairement
du 01 à 13 UTC au 01 à 22 UTC
Visibilité: 10 km
Nuages fragmentés à une hauteur de 5000 ft
neige faible

TAF: CYXP 011238Z 0113/0122 25010KT P6SM SCT050 TEMPO 0113/0122 P6SM -SN BKN050 RMK NXT FCST BY 011900Z

Observations et prévisions météorologiques de plus de 4000 aéroports (messages METAR et TAF).

Les stations disponibles sont représentées par des disques jaunes et rouges sur la carte.

Passer la souris dessus pour voir le nom de la station.

Cliquer dessus pour voir les observations et prévisions météorologiques.

Pour changer de carte: cliquez sur les boutons verts avec une croix noire pour zoomer, sur le bouton vert avec un tiret pour effectuer un zoom arrière, ou sur les flèches vertes pour les cartes adjacentes.


METAR-TAF: